createdAt,value
2023-02-11T00:02:11.569Z,98878.44
2023-02-11T00:04:45.037Z,98893.64
2023-02-11T00:07:18.539Z,98892.63
2023-02-11T00:09:52.404Z,98897.52
2023-02-11T00:12:26.106Z,98907.77
2023-02-11T00:14:59.441Z,98887.20
2023-02-11T00:17:35.596Z,98880.39
2023-02-11T00:20:11.007Z,98891.36
2023-02-11T00:22:44.792Z,98893.92
2023-02-11T00:25:19.305Z,98877.38
2023-02-11T00:27:52.744Z,98901.64
2023-02-11T00:30:26.579Z,98897.75
2023-02-11T00:32:59.968Z,98898.96
2023-02-11T00:35:33.379Z,98892.91
2023-02-11T00:38:07.039Z,98881.56
2023-02-11T00:40:40.613Z,98870.20
2023-02-11T00:43:14.064Z,98887.98
2023-02-11T00:45:48.008Z,98890.22
2023-02-11T00:48:21.616Z,98896.77
2023-02-11T00:50:55.330Z,98896.52
2023-02-11T00:53:29.027Z,98887.80
2023-02-11T00:56:02.664Z,98910.61
2023-02-11T00:58:36.430Z,98897.67
2023-02-11T01:01:10.230Z,98904.30
2023-02-11T01:03:43.946Z,98897.56
2023-02-11T01:06:17.831Z,98901.55
2023-02-11T01:08:51.402Z,98895.58
2023-02-11T01:11:25.274Z,98905.55
2023-02-11T01:13:58.884Z,98907.16
2023-02-11T01:16:32.261Z,98919.95
2023-02-11T01:19:05.789Z,98918.03
2023-02-11T01:21:39.711Z,98917.06
2023-02-11T01:24:13.327Z,98916.01
2023-02-11T01:26:48.609Z,98918.48
2023-02-11T01:29:22.173Z,98939.66
2023-02-11T01:31:55.873Z,98933.67
2023-02-11T01:34:31.157Z,98927.66
2023-02-11T01:37:04.703Z,98925.94
2023-02-11T01:39:38.688Z,98937.66
2023-02-11T01:42:16.816Z,98928.23
2023-02-11T01:44:52.980Z,98925.52
2023-02-11T01:47:26.573Z,98924.55
2023-02-11T01:50:02.742Z,98919.35
2023-02-11T01:52:38.892Z,98918.56
2023-02-11T01:55:32.746Z,98930.36
2023-02-11T01:58:07.827Z,98936.19
2023-02-11T02:00:43.159Z,98928.37
2023-02-11T02:03:22.020Z,98926.12
2023-02-11T02:05:58.417Z,98940.30
2023-02-11T02:08:36.438Z,98930.63
2023-02-11T02:11:10.369Z,98931.12
2023-02-11T02:13:43.668Z,98933.22
2023-02-11T02:16:20.041Z,98939.45
2023-02-11T02:18:56.319Z,98927.00
2023-02-11T02:25:25.462Z,98937.45
2023-02-11T02:28:03.801Z,98938.57
2023-02-11T02:30:58.868Z,98936.19
2023-02-11T02:33:38.107Z,98946.65
2023-02-11T02:36:17.406Z,98935.84
2023-02-11T02:38:55.010Z,98936.81
2023-02-11T02:41:31.297Z,98939.63
2023-02-11T02:44:05.433Z,98939.69
2023-02-11T02:46:39.507Z,98943.30
2023-02-11T02:49:18.451Z,98936.48
2023-02-11T02:55:37.895Z,98930.62
2023-02-11T02:58:23.252Z,98938.32
2023-02-11T03:01:00.039Z,98935.44
2023-02-11T03:03:37.981Z,98919.62
2023-02-11T03:06:14.882Z,98924.41
2023-02-11T03:08:51.209Z,98927.47
2023-02-11T03:11:26.012Z,98917.78
2023-02-11T03:14:01.269Z,98923.47
2023-02-11T03:16:38.680Z,98920.69
2023-02-11T03:19:15.629Z,98933.22
2023-02-11T03:21:51.880Z,98936.23
2023-02-11T03:24:28.292Z,98936.95
2023-02-11T03:27:05.494Z,98944.55
2023-02-11T03:29:42.466Z,98929.39
2023-02-11T03:32:19.143Z,98936.08
2023-02-11T03:34:56.918Z,98924.27
2023-02-11T03:37:30.964Z,98949.13
2023-02-11T03:40:07.662Z,98917.72
2023-02-11T03:42:43.894Z,98921.08
2023-02-11T03:45:20.334Z,98934.80
2023-02-11T03:47:56.926Z,98929.87
2023-02-11T03:50:33.727Z,98932.42
2023-02-11T03:53:09.253Z,98911.17
2023-02-11T03:55:43.755Z,98918.66
2023-02-11T03:58:17.062Z,98929.69
2023-02-11T04:00:53.066Z,98905.02
2023-02-11T04:03:25.495Z,98922.66
2023-02-11T04:05:58.789Z,98923.22
2023-02-11T04:08:33.017Z,98906.50
2023-02-11T04:11:06.215Z,98920.41
2023-02-11T04:13:39.813Z,98914.16
2023-02-11T04:16:13.503Z,98916.45
2023-02-11T04:18:46.678Z,98922.73
2023-02-11T04:21:20.335Z,98926.02
2023-02-11T04:23:53.940Z,98924.07
2023-02-11T04:26:27.420Z,98927.97
2023-02-11T04:29:00.810Z,98927.62
2023-02-11T04:31:37.472Z,98898.39
2023-02-11T04:34:11.033Z,98919.29
2023-02-11T04:36:44.501Z,98924.83
2023-02-11T04:39:18.129Z,98917.72
2023-02-11T04:41:51.606Z,98909.78
2023-02-11T04:44:25.356Z,98907.86
2023-02-11T04:46:58.742Z,98925.56
2023-02-11T04:49:32.212Z,98915.08
2023-02-11T04:52:05.305Z,98934.47
2023-02-11T04:54:38.901Z,98905.49
2023-02-11T04:57:12.253Z,98922.49
2023-02-11T04:59:45.935Z,98928.83
2023-02-11T05:02:19.439Z,98925.73
2023-02-11T05:04:52.916Z,98920.90
2023-02-11T05:07:26.401Z,98924.67
2023-02-11T05:09:59.666Z,98926.25
2023-02-11T05:12:34.408Z,98914.30
2023-02-11T05:15:08.975Z,98923.38
2023-02-11T05:17:42.676Z,98920.46
2023-02-11T05:20:16.104Z,98923.64
2023-02-11T05:22:49.678Z,98935.34
2023-02-11T05:25:23.416Z,98919.32
2023-02-11T05:27:57.172Z,98918.70
2023-02-11T05:30:31.109Z,98923.09
2023-02-11T05:33:05.169Z,98921.84
2023-02-11T05:35:38.688Z,98917.99
2023-02-11T05:38:12.320Z,98911.47
2023-02-11T05:40:46.114Z,98915.32
2023-02-11T05:43:19.636Z,98919.25
2023-02-11T05:45:53.597Z,98930.52
2023-02-11T05:48:27.208Z,98929.45
2023-02-11T05:51:00.643Z,98923.70
2023-02-11T05:53:34.093Z,98918.59
2023-02-11T05:56:10.502Z,98923.15
2023-02-11T05:58:43.969Z,98929.31
2023-02-11T06:01:17.568Z,98904.66
2023-02-11T06:03:51.610Z,98906.65
2023-02-11T06:06:25.403Z,98898.11
2023-02-11T06:09:01.822Z,98912.02
2023-02-11T06:11:35.399Z,98913.04
2023-02-11T06:14:10.042Z,98920.63
2023-02-11T06:16:43.561Z,98898.04
2023-02-11T06:19:17.054Z,98895.41
2023-02-11T06:21:50.602Z,98900.67
2023-02-11T06:24:47.668Z,98912.09
2023-02-11T06:26:59.255Z,98911.30
2023-02-11T06:29:32.692Z,98909.94
2023-02-11T06:32:06.700Z,98905.55
2023-02-11T06:34:41.333Z,98891.33
2023-02-11T06:37:14.817Z,98900.77
2023-02-11T06:39:48.506Z,98890.72
2023-02-11T06:42:22.000Z,98895.98
2023-02-11T06:44:55.528Z,98917.48
2023-02-11T06:47:29.225Z,98898.53
2023-02-11T06:50:02.548Z,98895.19
2023-02-11T06:52:39.314Z,98888.70
2023-02-11T06:55:12.789Z,98898.94
2023-02-11T06:57:46.221Z,98926.03
2023-02-11T07:00:20.967Z,98909.31
2023-02-11T07:02:54.202Z,98919.94
2023-02-11T07:05:27.698Z,98923.74
2023-02-11T07:08:01.067Z,98909.52
2023-02-11T07:10:35.334Z,98911.09
2023-02-11T07:13:08.903Z,98897.97
2023-02-11T07:15:42.483Z,98893.95
2023-02-11T07:18:15.860Z,98901.45
2023-02-11T07:20:49.340Z,98895.58
2023-02-11T07:23:22.864Z,98895.45
2023-02-11T07:25:56.335Z,98899.78
2023-02-11T07:28:29.724Z,98887.55
2023-02-11T07:31:05.849Z,98904.09
2023-02-11T07:33:39.686Z,98878.70
2023-02-11T07:36:14.319Z,98869.33
2023-02-11T07:38:47.986Z,98870.56
2023-02-11T07:41:23.817Z,98876.77
2023-02-11T07:43:57.321Z,98860.01
2023-02-11T07:46:30.999Z,98872.27
2023-02-11T07:49:04.739Z,98869.59
2023-02-11T07:51:38.503Z,98860.50
2023-02-11T07:54:13.431Z,98868.28
2023-02-11T07:56:47.142Z,98861.94
2023-02-11T07:59:20.775Z,98866.81
2023-02-11T08:01:54.507Z,98879.72
2023-02-11T08:04:28.167Z,98863.92
2023-02-11T08:07:01.705Z,98864.88
2023-02-11T08:09:35.223Z,98863.91
2023-02-11T08:12:08.985Z,98855.54
2023-02-11T08:14:45.365Z,98871.41
2023-02-11T08:17:22.096Z,98895.06
2023-02-11T08:19:58.924Z,98856.98
2023-02-11T08:22:38.455Z,98862.45
2023-02-11T08:25:16.815Z,98865.75
2023-02-11T08:27:54.156Z,98870.14
2023-02-11T08:30:30.023Z,98858.23
2023-02-11T08:33:06.323Z,98853.19
2023-02-11T08:35:42.525Z,98848.83
2023-02-11T08:38:17.533Z,98846.42
2023-02-11T08:40:54.453Z,98844.13
2023-02-11T08:43:29.688Z,98856.00
2023-02-11T08:46:06.270Z,98838.94
2023-02-11T08:48:41.953Z,98834.48
2023-02-11T08:51:19.896Z,98852.13
2023-02-11T08:53:56.547Z,98801.69
2023-02-11T08:56:33.702Z,98808.09
2023-02-11T08:59:09.612Z,98797.58
2023-02-11T09:01:47.640Z,98815.19
2023-02-11T09:04:22.666Z,98829.70
2023-02-11T09:06:58.198Z,98779.13
2023-02-11T09:09:37.756Z,98780.20
2023-02-11T09:12:16.144Z,98772.92
2023-02-11T09:14:49.712Z,98758.16
2023-02-11T09:17:23.414Z,98756.56
2023-02-11T09:19:56.747Z,98766.94
2023-02-11T09:22:30.366Z,98750.06
2023-02-11T09:25:03.816Z,98729.84
2023-02-11T09:27:37.384Z,98714.06
2023-02-11T09:30:13.103Z,98739.55
2023-02-11T09:32:46.670Z,98718.64
2023-02-11T09:35:20.601Z,98712.83
2023-02-11T09:37:54.405Z,98714.47
2023-02-11T09:40:28.213Z,98699.55
2023-02-11T09:43:04.915Z,98730.37
2023-02-11T09:45:38.744Z,98735.37
2023-02-11T09:48:16.702Z,98692.33
2023-02-11T09:50:53.125Z,98711.23
2023-02-11T09:53:28.723Z,98683.84
2023-02-11T09:56:06.104Z,98682.77
2023-02-11T09:58:42.530Z,98706.78
2023-02-11T10:01:21.401Z,98683.05
2023-02-11T10:04:04.382Z,98675.02
2023-02-11T10:06:49.751Z,98662.14
2023-02-11T10:09:54.301Z,98677.64
2023-02-11T10:12:36.529Z,98681.68
2023-02-11T10:15:21.495Z,98670.81
2023-02-11T10:18:11.387Z,98649.18
2023-02-11T10:20:50.266Z,98650.94
2023-02-11T10:23:27.038Z,98660.50
2023-02-11T10:26:01.326Z,98688.97
2023-02-11T10:28:39.076Z,98666.86
2023-02-11T10:31:13.943Z,98650.59
2023-02-11T10:33:50.366Z,98690.32
2023-02-11T10:36:29.657Z,98640.48
2023-02-11T10:39:04.095Z,98638.93
2023-02-11T10:41:40.138Z,98652.70
2023-02-11T10:44:23.575Z,98601.41
2023-02-11T10:46:57.972Z,98628.00
2023-02-11T10:49:40.324Z,98598.34
2023-02-11T10:52:25.595Z,98616.27
2023-02-11T10:55:04.279Z,98602.72
2023-02-11T10:57:39.607Z,98597.17
2023-02-11T11:00:25.994Z,98602.23
2023-02-11T11:03:01.717Z,98583.44
2023-02-11T11:05:37.600Z,98583.67
2023-02-11T11:08:13.340Z,98570.20
2023-02-11T11:10:48.550Z,98581.11
2023-02-11T11:13:33.609Z,98572.67
2023-02-11T11:16:20.782Z,98546.30
2023-02-11T11:18:55.865Z,98557.30
2023-02-11T11:21:34.711Z,98554.68
2023-02-11T11:24:11.955Z,98519.11
2023-02-11T11:26:48.021Z,98550.82
2023-02-11T11:29:23.784Z,98518.56
2023-02-11T11:32:01.564Z,98523.80
2023-02-11T11:34:35.017Z,98520.43
2023-02-11T11:37:16.139Z,98489.16
2023-02-11T11:39:56.524Z,98498.66
2023-02-11T11:42:31.983Z,98462.77
2023-02-11T11:45:11.733Z,98482.09
2023-02-11T11:47:48.097Z,98492.48
2023-02-11T11:50:28.644Z,98487.91
2023-02-11T11:53:08.927Z,98469.91
2023-02-11T11:55:45.436Z,98478.77
2023-02-11T11:58:24.190Z,98468.66
2023-02-11T12:01:01.467Z,98473.83
2023-02-11T12:04:15.679Z,98462.63
2023-02-11T12:09:36.007Z,98453.08
2023-02-11T12:12:21.815Z,98426.90
2023-02-11T12:15:00.051Z,98440.16
2023-02-11T12:17:43.221Z,98432.36
2023-02-11T12:20:26.358Z,98428.05
2023-02-11T12:23:15.285Z,98415.43
2023-02-11T12:25:52.257Z,98429.41
2023-02-11T12:28:32.928Z,98420.16
2023-02-11T12:31:35.575Z,98427.55
2023-02-11T12:34:25.088Z,98460.16
2023-02-11T12:37:08.107Z,98430.80
2023-02-11T12:39:46.556Z,98417.99
2023-02-11T12:42:57.429Z,98415.87
2023-02-11T12:45:44.226Z,98412.91
2023-02-11T12:48:26.492Z,98387.89
2023-02-11T12:53:56.011Z,98390.95
2023-02-11T12:56:33.124Z,98378.91
2023-02-11T12:59:09.359Z,98358.36
2023-02-11T13:01:44.914Z,98397.58
2023-02-11T13:04:22.077Z,98368.23
2023-02-11T13:06:58.453Z,98346.09
2023-02-11T13:09:38.027Z,98351.88
2023-02-11T13:12:40.852Z,98327.16
2023-02-11T13:15:18.609Z,98326.96
2023-02-11T13:17:53.538Z,98320.92
2023-02-11T13:20:36.718Z,98319.03
2023-02-11T13:23:15.537Z,98306.61
2023-02-11T13:25:52.236Z,98306.70
2023-02-11T13:28:32.820Z,98289.70
2023-02-11T13:31:08.145Z,98293.21
2023-02-11T13:33:43.361Z,98283.67
2023-02-11T13:36:25.987Z,98277.85
2023-02-11T13:39:05.240Z,98262.94
2023-02-11T13:41:45.369Z,98272.13
2023-02-11T13:44:29.560Z,98227.67
2023-02-11T13:47:05.608Z,98236.30
2023-02-11T13:49:41.748Z,98228.86
2023-02-11T13:52:26.843Z,98225.34
2023-02-11T13:55:04.728Z,98208.04
2023-02-11T13:57:42.432Z,98187.52
2023-02-11T14:00:31.623Z,98205.22
2023-02-11T14:03:44.396Z,98189.22
2023-02-11T14:06:38.109Z,98192.33
2023-02-11T14:09:31.396Z,98176.67
2023-02-11T14:12:26.231Z,98175.81
2023-02-11T14:15:20.853Z,98164.64
2023-02-11T14:17:54.489Z,98129.64
2023-02-11T14:20:46.699Z,98121.91
2023-02-11T14:23:29.673Z,98112.69
2023-02-11T14:26:32.461Z,98099.95
2023-02-11T14:29:10.708Z,98117.91
2023-02-11T14:31:47.974Z,98112.74
2023-02-11T14:34:40.511Z,98089.73
2023-02-11T14:37:21.872Z,98075.38
2023-02-11T14:40:02.326Z,98067.71
2023-02-11T14:42:37.225Z,98072.06
2023-02-11T14:45:14.398Z,98054.22
2023-02-11T14:47:52.982Z,98071.17
2023-02-11T14:50:29.645Z,98055.21
2023-02-11T14:53:06.635Z,98050.80
2023-02-11T14:55:42.890Z,98044.98
2023-02-11T14:58:18.830Z,98060.38
2023-02-11T15:00:55.326Z,98025.23
2023-02-11T15:03:34.630Z,98026.32
2023-02-11T15:06:14.872Z,98068.24
2023-02-11T15:08:51.918Z,98015.33
2023-02-11T15:11:27.159Z,98005.86
2023-02-11T15:14:03.246Z,98025.52
2023-02-11T15:16:38.531Z,98012.59
2023-02-11T15:19:17.156Z,98013.48
2023-02-11T15:21:52.294Z,97985.27
2023-02-11T15:24:28.072Z,98029.92
2023-02-11T15:27:08.146Z,98017.08
2023-02-11T15:29:43.403Z,98001.50
2023-02-11T15:32:18.965Z,98019.69
2023-02-11T15:34:54.217Z,97983.88
2023-02-11T15:37:30.291Z,97994.16
2023-02-11T15:40:14.165Z,97980.56
2023-02-11T15:42:58.783Z,97969.52
2023-02-11T15:45:35.545Z,97957.63
2023-02-11T15:48:15.441Z,98001.17
2023-02-11T15:50:55.199Z,97958.00
2023-02-11T15:53:33.008Z,97938.47
2023-02-11T15:56:07.153Z,97942.02
2023-02-11T15:58:41.532Z,97936.09
2023-02-11T16:01:15.886Z,97936.63
2023-02-11T16:03:52.400Z,97922.27
2023-02-11T16:06:29.970Z,97935.87
2023-02-11T16:09:06.321Z,97907.86
2023-02-11T16:11:47.339Z,97985.52
2023-02-11T16:14:26.853Z,97925.13
2023-02-11T16:17:02.793Z,97929.36
2023-02-11T16:22:22.544Z,97899.89
2023-02-11T16:24:58.613Z,97920.06
2023-02-11T16:27:35.010Z,97914.27
2023-02-11T16:30:11.839Z,97900.45
2023-02-11T16:32:47.665Z,97870.80
2023-02-11T16:35:22.679Z,97860.56
2023-02-11T16:37:56.296Z,97858.00
2023-02-11T16:40:30.219Z,97883.68
2023-02-11T16:43:04.694Z,97860.64
2023-02-11T16:45:40.969Z,97908.43
2023-02-11T16:48:19.754Z,97856.42
2023-02-11T16:50:53.908Z,97864.91
2023-02-11T16:53:28.202Z,97836.07
2023-02-11T16:56:02.242Z,97845.45
2023-02-11T16:58:35.884Z,97892.55
2023-02-11T17:01:12.853Z,97823.44
2023-02-11T17:03:46.343Z,97832.86
2023-02-11T17:06:20.096Z,97815.88
2023-02-11T17:08:53.829Z,97809.87
2023-02-11T17:11:27.789Z,97843.11
2023-02-11T17:14:03.437Z,97815.88
2023-02-11T17:16:37.591Z,97789.47
2023-02-11T17:19:16.500Z,97803.97
2023-02-11T17:21:52.946Z,97780.12
2023-02-11T17:24:29.210Z,97807.47
2023-02-11T17:27:05.329Z,97812.01
2023-02-11T17:29:42.362Z,97747.89
2023-02-11T17:32:17.405Z,97792.27
2023-02-11T17:34:54.894Z,97783.69
2023-02-11T17:37:28.470Z,97788.00
2023-02-11T17:40:01.708Z,97776.05
2023-02-11T17:42:35.197Z,97768.33
2023-02-11T17:45:10.306Z,97764.17
2023-02-11T17:47:43.715Z,97782.95
2023-02-11T17:50:17.113Z,97768.37
2023-02-11T17:52:50.358Z,97716.38
2023-02-11T17:55:23.651Z,97743.00
2023-02-11T17:57:56.941Z,97758.36
2023-02-11T18:00:30.737Z,97715.56
2023-02-11T18:03:03.950Z,97746.30
2023-02-11T18:05:38.838Z,97739.39
2023-02-11T18:08:12.103Z,97718.12
2023-02-11T18:10:45.633Z,97692.52
2023-02-11T18:13:18.988Z,97713.05
2023-02-11T18:15:52.619Z,97697.72
2023-02-11T18:18:27.161Z,97681.53
2023-02-11T18:21:01.753Z,97684.24
2023-02-11T18:23:35.387Z,97653.59
2023-02-11T18:26:10.962Z,97671.48
2023-02-11T18:28:45.960Z,97690.14
2023-02-11T18:31:20.227Z,97657.86
2023-02-11T18:33:53.958Z,97651.06
2023-02-11T18:36:27.149Z,97640.00
2023-02-11T18:39:00.727Z,97647.72
2023-02-11T18:41:35.719Z,97608.45
2023-02-11T18:44:08.894Z,97651.95
2023-02-11T18:46:42.138Z,97693.89
2023-02-11T18:49:15.303Z,97649.50
2023-02-11T18:51:48.720Z,97611.97
2023-02-11T18:54:21.891Z,97616.95
2023-02-11T18:56:55.289Z,97614.53
2023-02-11T18:59:28.786Z,97609.41
2023-02-11T19:02:03.257Z,97603.39
2023-02-11T19:04:38.333Z,97616.37
2023-02-11T19:07:11.741Z,97601.83
2023-02-11T19:09:44.773Z,97628.33
2023-02-11T19:12:17.867Z,97616.47
2023-02-11T19:14:50.932Z,97612.95
2023-02-11T19:17:24.524Z,97600.19
2023-02-11T19:19:57.645Z,97622.48
2023-02-11T19:22:30.736Z,97614.97
2023-02-11T19:25:04.020Z,97601.41
2023-02-11T19:27:36.343Z,97585.97
2023-02-11T19:30:11.949Z,97594.58
2023-02-11T19:32:45.128Z,97591.19
2023-02-11T19:35:18.561Z,97581.83
2023-02-11T19:37:51.734Z,97586.10
2023-02-11T19:40:24.806Z,97580.09
2023-02-11T19:42:57.842Z,97596.28
2023-02-11T19:45:31.239Z,97570.63
2023-02-11T19:48:05.269Z,97571.58
2023-02-11T19:50:38.583Z,97563.05
2023-02-11T19:53:11.467Z,97554.63
2023-02-11T19:55:44.567Z,97547.67
2023-02-11T19:58:19.145Z,97564.75
2023-02-11T20:00:52.825Z,97540.91
2023-02-11T20:03:25.979Z,97534.83
2023-02-11T20:05:59.297Z,97535.71
2023-02-11T20:08:33.405Z,97520.34
2023-02-11T20:11:12.156Z,97532.39
2023-02-11T20:13:45.920Z,97523.95
2023-02-11T20:16:20.903Z,97524.73
2023-02-11T20:18:54.356Z,97544.41
2023-02-11T20:21:28.968Z,97527.33
2023-02-11T20:24:02.256Z,97549.57
2023-02-11T20:26:36.391Z,97510.21
2023-02-11T20:29:09.806Z,97505.16
2023-02-11T20:31:43.238Z,97517.08
2023-02-11T20:34:17.833Z,97505.22
2023-02-11T20:36:53.016Z,97525.69
2023-02-11T20:39:28.290Z,97497.52
2023-02-11T20:42:01.501Z,97512.05
2023-02-11T20:44:36.319Z,97512.05
2023-02-11T20:47:10.401Z,97498.47
2023-02-11T20:49:43.630Z,97514.77
2023-02-11T20:52:16.707Z,97504.52
2023-02-11T20:54:49.947Z,97500.27
2023-02-11T20:57:23.231Z,97502.01
2023-02-11T20:59:56.620Z,97490.08
2023-02-11T21:02:31.813Z,97483.19
2023-02-11T21:05:05.091Z,97495.14
2023-02-11T21:07:39.242Z,97490.91
2023-02-11T21:10:14.138Z,97484.95
2023-02-11T21:12:49.785Z,97478.94
2023-02-11T21:15:23.854Z,97481.56
2023-02-11T21:17:56.985Z,97488.43
2023-02-11T21:20:30.086Z,97497.86
2023-02-11T21:23:03.382Z,97480.77
2023-02-11T21:25:36.524Z,97483.30
2023-02-11T21:28:09.875Z,97500.42
2023-02-11T21:30:43.305Z,97483.30
2023-02-11T21:33:16.634Z,97492.81
2023-02-11T21:35:50.268Z,97489.41
2023-02-11T21:38:23.234Z,97498.83
2023-02-11T21:41:00.000Z,97480.03
2023-02-11T21:43:33.544Z,97497.15
2023-02-11T21:46:11.778Z,97490.28
2023-02-11T21:48:45.011Z,97489.43
2023-02-11T21:51:19.913Z,97484.30
2023-02-11T21:53:56.718Z,97485.22
2023-02-11T21:56:30.742Z,97477.47
2023-02-11T21:59:04.540Z,97479.20
2023-02-11T22:01:37.617Z,97477.53
2023-02-11T22:04:11.299Z,97482.59
2023-02-11T22:06:44.934Z,97480.13
2023-02-11T22:09:18.077Z,97475.88
2023-02-11T22:11:51.297Z,97475.05
2023-02-11T22:14:24.772Z,97470.84
2023-02-11T22:16:57.948Z,97478.58
2023-02-11T22:19:32.710Z,97470.89
2023-02-11T22:22:05.623Z,97476.84
2023-02-11T22:24:38.853Z,97483.66
2023-02-11T22:27:11.968Z,97475.98
2023-02-11T22:29:45.216Z,97476.05
2023-02-11T22:32:18.462Z,97481.20
2023-02-11T22:34:53.434Z,97478.64
2023-02-11T22:37:26.377Z,97468.38
2023-02-11T22:39:59.431Z,97479.55
2023-02-11T22:42:34.180Z,97466.73
2023-02-11T22:45:09.064Z,97477.84
2023-02-11T22:47:42.258Z,97471.86
2023-02-11T22:50:15.572Z,97476.13
2023-02-11T22:52:48.611Z,97483.85
2023-02-11T22:55:22.386Z,97482.17
2023-02-11T22:57:55.703Z,97490.72
2023-02-11T23:00:30.665Z,97499.29
2023-02-11T23:03:03.882Z,97501.00
2023-02-11T23:05:41.076Z,97500.17
2023-02-11T23:08:14.560Z,97508.73
2023-02-11T23:10:47.907Z,97505.34
2023-02-11T23:13:21.164Z,97507.10
2023-02-11T23:15:54.575Z,97513.08
2023-02-11T23:18:27.646Z,97515.65
2023-02-11T23:21:05.876Z,97525.08
2023-02-11T23:23:39.144Z,97514.84
2023-02-11T23:26:13.981Z,97520.00
2023-02-11T23:28:47.433Z,97525.14
2023-02-11T23:31:23.175Z,97517.39
2023-02-11T23:33:56.555Z,97531.01
2023-02-11T23:36:30.086Z,97520.86
2023-02-11T23:39:03.340Z,97531.95
2023-02-11T23:41:36.634Z,97542.20
2023-02-11T23:44:11.299Z,97555.03
2023-02-11T23:46:44.549Z,97557.59
2023-02-11T23:49:17.675Z,97553.34
2023-02-11T23:51:50.785Z,97563.61
2023-02-11T23:54:24.257Z,97574.72
2023-02-11T23:56:57.376Z,97584.89
2023-02-11T23:59:30.613Z,97586.57
